Time;durP1;ratioP1;P1;durP2;ratioP2;P2;SDS_P1;SDS_P2;PMS_P1;PMS_P2;Temp;Humidity;BMP_temperature;BMP_pressure;BME280_temperature;BME280_humidity;BME280_pressure;Samples;Min_cycle;Max_cycle;Signal;HPM_P1;HPM_P2
2022/09/08 00:00:38;;;;;;;1.40;1.40;;;;;;;;;;5015910;28;20238;-77
2022/09/08 00:03:04;;;;;;;1.63;1.63;;;;;;;;;;5025668;28;20232;-77
2022/09/08 00:05:30;;;;;;;1.60;1.60;;;;;;;;;;5024682;28;20600;-77
2022/09/08 00:07:58;;;;;;;1.60;1.60;;;;;;;;;;4996324;28;20633;-77
2022/09/08 00:10:25;;;;;;;1.77;1.70;;;;;;;;;;5020832;28;20222;-76
2022/09/08 00:12:51;;;;;;;1.60;1.60;;;;;;;;;;5032435;28;20617;-76
2022/09/08 00:15:17;;;;;;;1.60;1.60;;;;;;;;;;5027001;28;20224;-76
2022/09/08 00:17:43;;;;;;;2.03;1.93;;;;;;;;;;5005038;28;20321;-78
2022/09/08 00:20:09;;;;;;;1.50;1.50;;;;;;;;;;5021810;28;20723;-77
2022/09/08 00:22:35;;;;;;;1.40;1.40;;;;;;;;;;5023714;28;20606;-79
2022/09/08 00:25:01;;;;;;;1.70;1.70;;;;;;;;;;5019611;28;20219;-78
2022/09/08 00:27:27;;;;;;;1.60;1.60;;;;;;;;;;5029496;28;20357;-78
2022/09/08 00:29:53;;;;;;;1.40;1.40;;;;;;;;;;5036088;28;20221;-79
2022/09/08 00:32:19;;;;;;;1.57;1.57;;;;;;;;;;5009580;28;20312;-76
2022/09/08 00:34:45;;;;;;;1.60;1.60;;;;;;;;;;5005565;28;20220;-76
2022/09/08 00:37:11;;;;;;;1.50;1.50;;;;;;;;;;5024110;28;20594;-76
2022/09/08 00:39:37;;;;;;;1.60;1.60;;;;;;;;;;5015590;28;20262;-76
2022/09/08 00:42:03;;;;;;;1.40;1.40;;;;;;;;;;5010447;28;20659;-76
2022/09/08 00:44:39;;;;;;;1.67;1.67;;;;;;;;;;5030080;28;20300;-76
2022/09/08 00:47:06;;;;;;;1.40;1.40;;;;;;;;;;5021600;28;20302;-75
2022/09/08 00:49:32;;;;;;;1.50;1.50;;;;;;;;;;5011786;28;20632;-79
2022/09/08 00:51:58;;;;;;;1.40;1.40;;;;;;;;;;5011544;28;20220;-76
2022/09/08 00:54:24;;;;;;;1.50;1.50;;;;;;;;;;5016430;28;20249;-77
2022/09/08 00:56:50;;;;;;;1.40;1.40;;;;;;;;;;5038492;28;20305;-77
2022/09/08 00:59:16;;;;;;;1.60;1.60;;;;;;;;;;5006803;28;20322;-77
2022/09/08 01:01:42;;;;;;;1.40;1.40;;;;;;;;;;5008106;28;20237;-73
2022/09/08 01:04:08;;;;;;;1.70;1.67;;;;;;;;;;5013078;28;20251;-75
2022/09/08 01:12:44;;;;;;;1.60;1.60;;;;;;;;;;5046034;28;20221;-76
2022/09/08 01:15:11;;;;;;;1.40;1.40;;;;;;;;;;5009772;28;20227;-75
2022/09/08 01:17:37;;;;;;;1.40;1.40;;;;;;;;;;5016509;28;20236;-74
2022/09/08 01:20:04;;;;;;;1.67;1.67;;;;;;;;;;5026122;28;20247;-73
2022/09/08 01:22:45;;;;;;;1.50;1.50;;;;;;;;;;5034766;28;20585;-75
2022/09/08 01:25:29;;;;;;;1.50;1.50;;;;;;;;;;5037494;28;20224;-74
2022/09/08 01:28:18;;;;;;;1.50;1.50;;;;;;;;;;5036271;28;20226;-73
2022/09/08 01:30:46;;;;;;;1.50;1.50;;;;;;;;;;5029173;28;20611;-74
2022/09/08 01:33:12;;;;;;;1.90;1.80;;;;;;;;;;5034915;28;20200;-74
2022/09/08 01:35:38;;;;;;;1.90;1.80;;;;;;;;;;5020892;28;20231;-73
2022/09/08 01:38:04;;;;;;;1.80;1.70;;;;;;;;;;5023797;28;20251;-72
2022/09/08 01:40:31;;;;;;;1.90;1.80;;;;;;;;;;5027313;28;20277;-73
2022/09/08 01:42:57;;;;;;;1.90;1.80;;;;;;;;;;5029032;28;20232;-74
2022/09/08 01:45:23;;;;;;;1.50;1.50;;;;;;;;;;5042001;28;20290;-74
2022/09/08 01:47:49;;;;;;;1.90;1.80;;;;;;;;;;5033259;28;20305;-75
2022/09/08 01:50:15;;;;;;;2.00;1.90;;;;;;;;;;5038361;28;20220;-74
2022/09/08 01:52:41;;;;;;;1.80;1.70;;;;;;;;;;5031296;28;20294;-72
2022/09/08 01:55:07;;;;;;;1.93;1.83;;;;;;;;;;5028949;28;20220;-73
2022/09/08 01:57:33;;;;;;;1.50;1.50;;;;;;;;;;5010484;28;20246;-75
2022/09/08 01:59:59;;;;;;;1.57;1.57;;;;;;;;;;5017530;28;20224;-73
2022/09/08 02:02:25;;;;;;;1.50;1.50;;;;;;;;;;5030172;28;20305;-77
2022/09/08 02:04:52;;;;;;;1.50;1.50;;;;;;;;;;5020584;28;20235;-75
2022/09/08 02:07:18;;;;;;;1.40;1.40;;;;;;;;;;5037129;28;20216;-73
2022/09/08 02:09:45;;;;;;;1.60;1.60;;;;;;;;;;5038721;28;20269;-73
2022/09/08 02:12:11;;;;;;;1.50;1.50;;;;;;;;;;5021633;28;20232;-75
2022/09/08 02:14:36;;;;;;;1.60;1.60;;;;;;;;;;5011675;28;20314;-75
2022/09/08 02:17:03;;;;;;;1.40;1.40;;;;;;;;;;5014427;28;20219;-75
2022/09/08 02:19:29;;;;;;;1.50;1.50;;;;;;;;;;5027664;28;20221;-76
2022/09/08 02:21:55;;;;;;;1.70;1.70;;;;;;;;;;4993443;28;20230;-76
2022/09/08 02:24:21;;;;;;;1.60;1.60;;;;;;;;;;5003312;28;20241;-73
2022/09/08 02:26:46;;;;;;;1.50;1.50;;;;;;;;;;4994249;28;20216;-76
2022/09/08 02:29:12;;;;;;;1.50;1.50;;;;;;;;;;5020718;28;20223;-73
2022/09/08 02:31:38;;;;;;;1.70;1.70;;;;;;;;;;5031805;28;20238;-76
2022/09/08 02:34:04;;;;;;;1.50;1.50;;;;;;;;;;5016903;28;20220;-76
2022/09/08 02:36:30;;;;;;;1.57;1.57;;;;;;;;;;5000843;28;20233;-74
2022/09/08 02:38:56;;;;;;;1.57;1.57;;;;;;;;;;5027366;28;20304;-75
2022/09/08 02:41:23;;;;;;;1.50;1.50;;;;;;;;;;5021928;28;20310;-73
2022/09/08 02:43:49;;;;;;;1.60;1.60;;;;;;;;;;5021459;28;20212;-76
2022/09/08 02:46:15;;;;;;;1.30;1.30;;;;;;;;;;5019408;28;20231;-74
2022/09/08 02:48:41;;;;;;;1.40;1.40;;;;;;;;;;5006343;28;20754;-75
2022/09/08 02:51:09;;;;;;;1.57;1.57;;;;;;;;;;5013546;28;20227;-76
2022/09/08 02:53:35;;;;;;;1.50;1.50;;;;;;;;;;5017719;28;20228;-73
2022/09/08 02:56:01;;;;;;;1.90;1.80;;;;;;;;;;5025653;28;20311;-77
2022/09/08 02:58:27;;;;;;;1.90;1.80;;;;;;;;;;5028909;28;20231;-74
2022/09/08 03:00:53;;;;;;;1.70;1.70;;;;;;;;;;5028708;28;20230;-76
2022/09/08 03:03:19;;;;;;;1.90;1.80;;;;;;;;;;5028634;28;20235;-75
2022/09/08 03:05:45;;;;;;;2.03;1.93;;;;;;;;;;5029517;28;20255;-75
2022/09/08 03:08:12;;;;;;;2.00;1.90;;;;;;;;;;5020493;28;20339;-74
2022/09/08 03:10:38;;;;;;;1.90;1.80;;;;;;;;;;5012392;28;20219;-74
2022/09/08 03:13:04;;;;;;;1.90;1.80;;;;;;;;;;5030539;28;20209;-74
2022/09/08 03:15:30;;;;;;;1.70;1.70;;;;;;;;;;5019124;28;20233;-73
2022/09/08 03:17:56;;;;;;;2.00;1.90;;;;;;;;;;5016573;28;20228;-75
2022/09/08 03:20:22;;;;;;;1.60;1.60;;;;;;;;;;5017872;28;20224;-73
2022/09/08 03:22:48;;;;;;;2.00;1.90;;;;;;;;;;5039389;28;20686;-75
2022/09/08 03:25:14;;;;;;;1.90;1.80;;;;;;;;;;5030123;28;20598;-77
2022/09/08 03:27:41;;;;;;;2.10;2.00;;;;;;;;;;5016409;28;20259;-75
2022/09/08 03:30:07;;;;;;;2.00;1.90;;;;;;;;;;5029468;28;20338;-75
2022/09/08 03:32:34;;;;;;;1.90;1.80;;;;;;;;;;5018372;28;20228;-75
2022/09/08 03:35:00;;;;;;;1.77;1.70;;;;;;;;;;5017384;28;20760;-75
2022/09/08 03:37:27;;;;;;;1.80;1.70;;;;;;;;;;5028166;28;20227;-78
2022/09/08 03:39:53;;;;;;;1.60;1.60;;;;;;;;;;5018665;28;20216;-74
2022/09/08 03:42:19;;;;;;;1.60;1.60;;;;;;;;;;5005227;28;20715;-73
2022/09/08 03:44:45;;;;;;;1.63;1.63;;;;;;;;;;5030528;28;20231;-75
2022/09/08 03:47:11;;;;;;;1.60;1.60;;;;;;;;;;5006052;28;20273;-73
2022/09/08 03:49:37;;;;;;;1.70;1.70;;;;;;;;;;5020510;28;20846;-74
2022/09/08 03:52:03;;;;;;;2.03;1.93;;;;;;;;;;5021623;28;20621;-75
2022/09/08 03:54:47;;;;;;;1.80;1.70;;;;;;;;;;5018976;28;20224;-73
2022/09/08 03:57:13;;;;;;;1.70;1.70;;;;;;;;;;5003954;28;20818;-76
2022/09/08 03:59:39;;;;;;;1.80;1.70;;;;;;;;;;5018013;28;20771;-75
2022/09/08 04:02:05;;;;;;;2.00;1.90;;;;;;;;;;4998236;28;20241;-75
2022/09/08 04:04:32;;;;;;;1.80;1.70;;;;;;;;;;5016619;28;20237;-73
2022/09/08 04:06:58;;;;;;;1.80;1.70;;;;;;;;;;5016442;28;20742;-77
2022/09/08 04:09:23;;;;;;;2.00;1.90;;;;;;;;;;4999683;28;20652;-74
2022/09/08 04:11:49;;;;;;;1.60;1.60;;;;;;;;;;5004625;28;20224;-74
2022/09/08 04:14:16;;;;;;;2.00;1.90;;;;;;;;;;5016978;28;20216;-76
2022/09/08 04:16:42;;;;;;;1.60;1.60;;;;;;;;;;5025246;28;20614;-76
2022/09/08 04:19:08;;;;;;;1.60;1.60;;;;;;;;;;5010707;28;20312;-74
2022/09/08 04:21:34;;;;;;;1.60;1.60;;;;;;;;;;4987690;28;20220;-75
2022/09/08 04:24:00;;;;;;;2.23;2.13;;;;;;;;;;5018597;28;20270;-74
2022/09/08 04:26:26;;;;;;;1.63;1.63;;;;;;;;;;4994485;28;20704;-73
2022/09/08 04:28:52;;;;;;;1.70;1.70;;;;;;;;;;5002800;28;20268;-77
2022/09/08 04:31:18;;;;;;;1.90;1.80;;;;;;;;;;5010642;28;20220;-77
2022/09/08 04:33:44;;;;;;;1.80;1.70;;;;;;;;;;4992426;28;20219;-76
2022/09/08 04:36:11;;;;;;;1.90;1.80;;;;;;;;;;5014088;28;20223;-74
2022/09/08 04:38:37;;;;;;;1.67;1.67;;;;;;;;;;4994035;28;20232;-74
2022/09/08 04:41:04;;;;;;;2.00;1.90;;;;;;;;;;5015891;28;20228;-75
2022/09/08 04:43:31;;;;;;;1.80;1.70;;;;;;;;;;5014938;28;20223;-74
2022/09/08 04:46:00;;;;;;;1.93;1.83;;;;;;;;;;5013427;28;20279;-74
2022/09/08 04:48:26;;;;;;;1.83;1.73;;;;;;;;;;5014233;28;20258;-75
2022/09/08 04:50:52;;;;;;;1.63;1.63;;;;;;;;;;5015534;28;20696;-76
2022/09/08 04:53:18;;;;;;;1.90;1.80;;;;;;;;;;5011539;28;20223;-76
2022/09/08 04:55:44;;;;;;;1.90;1.80;;;;;;;;;;5004460;28;20224;-77
2022/09/08 04:58:10;;;;;;;1.90;1.80;;;;;;;;;;5000874;28;20239;-77
2022/09/08 05:00:37;;;;;;;1.90;1.80;;;;;;;;;;5020076;28;20232;-76
2022/09/08 05:03:03;;;;;;;1.90;1.80;;;;;;;;;;5003993;28;20272;-75
2022/09/08 05:05:29;;;;;;;1.90;1.80;;;;;;;;;;4998465;28;20323;-76
2022/09/08 05:07:54;;;;;;;1.80;1.70;;;;;;;;;;4999959;28;20758;-74
2022/09/08 05:10:22;;;;;;;1.90;1.80;;;;;;;;;;5010532;28;20718;-74
2022/09/08 05:12:47;;;;;;;1.83;1.73;;;;;;;;;;4979746;28;20786;-76
2022/09/08 05:15:13;;;;;;;2.00;1.90;;;;;;;;;;5004942;28;20232;-73
2022/09/08 05:17:39;;;;;;;2.40;2.30;;;;;;;;;;4998596;28;20833;-77
2022/09/08 05:20:07;;;;;;;1.90;1.80;;;;;;;;;;5024275;28;20311;-75
2022/09/08 05:22:33;;;;;;;2.10;2.00;;;;;;;;;;5002207;28;20297;-75
2022/09/08 05:25:00;;;;;;;1.90;1.80;;;;;;;;;;4997206;28;20220;-76
2022/09/08 05:27:26;;;;;;;2.00;1.90;;;;;;;;;;5021480;28;20452;-75
2022/09/08 05:29:51;;;;;;;2.00;1.90;;;;;;;;;;5019966;28;20697;-76
2022/09/08 05:32:17;;;;;;;2.00;1.90;;;;;;;;;;5017223;28;20274;-74
2022/09/08 05:34:43;;;;;;;1.80;1.70;;;;;;;;;;5025329;28;20302;-75
2022/09/08 05:37:09;;;;;;;1.70;1.70;;;;;;;;;;5028609;28;20233;-75
2022/09/08 05:39:35;;;;;;;1.60;1.60;;;;;;;;;;5034603;28;20219;-75
2022/09/08 05:42:01;;;;;;;2.10;2.00;;;;;;;;;;5021940;28;20228;-74
2022/09/08 05:44:27;;;;;;;1.80;1.70;;;;;;;;;;5010283;28;20239;-77
2022/09/08 05:46:53;;;;;;;1.70;1.70;;;;;;;;;;5000721;28;20214;-77
2022/09/08 05:49:19;;;;;;;1.60;1.60;;;;;;;;;;5020868;28;20227;-75
2022/09/08 05:51:45;;;;;;;1.60;1.60;;;;;;;;;;5028210;28;20235;-74
2022/09/08 05:54:11;;;;;;;1.60;1.60;;;;;;;;;;5035820;28;20227;-77
2022/09/08 05:56:37;;;;;;;1.60;1.60;;;;;;;;;;5029178;28;20224;-76
2022/09/08 05:59:03;;;;;;;1.80;1.70;;;;;;;;;;5026215;28;20593;-77
2022/09/08 06:01:30;;;;;;;1.80;1.70;;;;;;;;;;5016040;28;20223;-78
2022/09/08 06:03:56;;;;;;;1.50;1.50;;;;;;;;;;5033490;28;20220;-76
2022/09/08 06:06:22;;;;;;;1.40;1.40;;;;;;;;;;5010498;28;20583;-80
2022/09/08 06:08:48;;;;;;;1.70;1.70;;;;;;;;;;5033385;28;20220;-75
2022/09/08 06:11:14;;;;;;;1.60;1.60;;;;;;;;;;5029185;28;20247;-76
2022/09/08 06:13:41;;;;;;;1.50;1.50;;;;;;;;;;5029168;28;20312;-74
2022/09/08 06:16:11;;;;;;;1.60;1.60;;;;;;;;;;5028067;28;20224;-75
2022/09/08 06:18:38;;;;;;;1.43;1.43;;;;;;;;;;5015154;28;20233;-76
2022/09/08 06:21:07;;;;;;;1.40;1.40;;;;;;;;;;5016835;28;20225;-75
2022/09/08 06:23:33;;;;;;;1.33;1.33;;;;;;;;;;5010080;28;20229;-77
2022/09/08 06:25:59;;;;;;;1.50;1.50;;;;;;;;;;5017976;28;20700;-76
2022/09/08 06:28:27;;;;;;;1.40;1.40;;;;;;;;;;5008255;28;20286;-74
2022/09/08 06:30:53;;;;;;;1.40;1.40;;;;;;;;;;5036811;28;20307;-74
2022/09/08 06:33:24;;;;;;;1.40;1.40;;;;;;;;;;5034706;28;20594;-74
2022/09/08 06:35:53;;;;;;;1.40;1.40;;;;;;;;;;5017232;28;20768;-75
2022/09/08 06:38:22;;;;;;;1.30;1.30;;;;;;;;;;5029180;28;20233;-77
2022/09/08 06:40:49;;;;;;;1.20;1.20;;;;;;;;;;5039694;28;20700;-74
2022/09/08 06:43:27;;;;;;;1.60;1.60;;;;;;;;;;5004125;28;20216;-75
2022/09/08 06:45:53;;;;;;;1.40;1.40;;;;;;;;;;5014625;28;20250;-74
2022/09/08 06:48:25;;;;;;;1.30;1.30;;;;;;;;;;5013338;28;20327;-77
2022/09/08 06:50:55;;;;;;;1.27;1.27;;;;;;;;;;5026944;28;20246;-76
2022/09/08 06:53:23;;;;;;;1.40;1.40;;;;;;;;;;5015746;28;20220;-76
2022/09/08 06:55:52;;;;;;;1.40;1.40;;;;;;;;;;5027540;28;20676;-75
2022/09/08 06:58:24;;;;;;;1.30;1.30;;;;;;;;;;5002798;28;21084;-74
2022/09/08 07:00:53;;;;;;;1.60;1.60;;;;;;;;;;5007498;28;20615;-74
2022/09/08 07:03:25;;;;;;;1.17;1.17;;;;;;;;;;5035314;28;20239;-76
2022/09/08 07:05:51;;;;;;;1.40;1.40;;;;;;;;;;5034433;28;20224;-72
2022/09/08 07:08:23;;;;;;;1.60;1.60;;;;;;;;;;5025556;28;20225;-73
2022/09/08 07:11:08;;;;;;;1.30;1.30;;;;;;;;;;5037004;28;20208;-74
2022/09/08 07:13:39;;;;;;;1.50;1.50;;;;;;;;;;5027581;28;20262;-74
2022/09/08 07:16:17;;;;;;;1.50;1.50;;;;;;;;;;5025654;28;20276;-75
2022/09/08 07:18:52;;;;;;;1.50;1.50;;;;;;;;;;5035954;28;20238;-76
2022/09/08 07:21:38;;;;;;;1.60;1.60;;;;;;;;;;5014974;28;20791;-78
2022/09/08 07:24:04;;;;;;;1.43;1.43;;;;;;;;;;5025652;28;20229;-76
2022/09/08 07:26:30;;;;;;;1.70;1.70;;;;;;;;;;5022236;28;20235;-79
2022/09/08 07:28:58;;;;;;;1.50;1.50;;;;;;;;;;5015672;28;20602;-78
2022/09/08 07:31:24;;;;;;;1.40;1.40;;;;;;;;;;5029677;28;20223;-79
2022/09/08 07:33:54;;;;;;;1.50;1.50;;;;;;;;;;5011345;28;20307;-78
2022/09/08 07:36:35;;;;;;;1.47;1.47;;;;;;;;;;5015308;28;20509;-77
2022/09/08 07:39:06;;;;;;;1.60;1.60;;;;;;;;;;5015979;28;20296;-75
2022/09/08 07:41:40;;;;;;;1.40;1.40;;;;;;;;;;5019151;28;20259;-74
2022/09/08 07:44:10;;;;;;;1.40;1.40;;;;;;;;;;5020444;28;20307;-76
2022/09/08 07:47:06;;;;;;;1.40;1.40;;;;;;;;;;5024536;28;20229;-75
2022/09/08 07:49:51;;;;;;;1.37;1.37;;;;;;;;;;5017458;28;20228;-75
2022/09/08 07:52:22;;;;;;;1.50;1.50;;;;;;;;;;5040567;28;20211;-74
2022/09/08 07:55:01;;;;;;;1.30;1.30;;;;;;;;;;5029982;28;20236;-73
2022/09/08 07:57:36;;;;;;;1.30;1.30;;;;;;;;;;5021458;28;20230;-74
2022/09/08 08:00:08;;;;;;;1.30;1.30;;;;;;;;;;5028032;28;20220;-76
2022/09/08 08:02:54;;;;;;;1.60;1.60;;;;;;;;;;5033375;28;20875;-76
2022/09/08 08:05:20;;;;;;;1.50;1.50;;;;;;;;;;5028028;28;20266;-73
2022/09/08 08:08:05;;;;;;;1.40;1.40;;;;;;;;;;5032773;28;20298;-75
2022/09/08 08:10:32;;;;;;;1.37;1.37;;;;;;;;;;5026029;28;20808;-73
2022/09/08 08:13:01;;;;;;;1.20;1.20;;;;;;;;;;5022517;28;20228;-74
2022/09/08 08:15:35;;;;;;;1.50;1.50;;;;;;;;;;5018882;28;20224;-74
2022/09/08 08:18:08;;;;;;;1.57;1.57;;;;;;;;;;5041861;28;20263;-74
2022/09/08 08:20:41;;;;;;;1.13;1.13;;;;;;;;;;5014931;28;20220;-73
2022/09/08 08:23:14;;;;;;;1.30;1.30;;;;;;;;;;5011885;28;20377;-72
2022/09/08 08:25:46;;;;;;;1.50;1.50;;;;;;;;;;5021435;28;20219;-76
2022/09/08 08:28:17;;;;;;;1.30;1.30;;;;;;;;;;5037154;28;20232;-75
2022/09/08 08:31:01;;;;;;;1.40;1.40;;;;;;;;;;5015577;28;20300;-74
2022/09/08 08:33:32;;;;;;;1.40;1.40;;;;;;;;;;5038164;28;20227;-76
2022/09/08 08:36:03;;;;;;;1.40;1.40;;;;;;;;;;5028209;28;20759;-74
2022/09/08 08:38:31;;;;;;;1.30;1.30;;;;;;;;;;5033004;28;20846;-75
2022/09/08 08:40:57;;;;;;;1.50;1.50;;;;;;;;;;5040405;28;20692;-74
2022/09/08 08:43:40;;;;;;;1.60;1.60;;;;;;;;;;5024493;28;20226;-73
2022/09/08 08:46:12;;;;;;;1.80;1.70;;;;;;;;;;5022037;28;20230;-74
2022/09/08 08:48:44;;;;;;;0.90;0.90;;;;;;;;;;5038906;28;20289;-74
2022/09/08 08:51:30;;;;;;;1.10;1.10;;;;;;;;;;5034804;28;20215;-74
2022/09/08 08:54:11;;;;;;;1.17;1.17;;;;;;;;;;5032849;28;20232;-73
2022/09/08 08:56:40;;;;;;;1.20;1.20;;;;;;;;;;5039307;28;20223;-73
2022/09/08 08:59:14;;;;;;;1.30;1.30;;;;;;;;;;5032423;28;20252;-72
2022/09/08 09:01:57;;;;;;;1.20;1.20;;;;;;;;;;5014340;28;20224;-74
2022/09/08 09:04:23;;;;;;;1.30;1.30;;;;;;;;;;5017541;28;20215;-75
2022/09/08 09:06:55;;;;;;;1.50;1.50;;;;;;;;;;5039213;28;20234;-74
2022/09/08 09:09:25;;;;;;;1.40;1.40;;;;;;;;;;5041082;28;20231;-74
2022/09/08 09:11:51;;;;;;;0.90;0.90;;;;;;;;;;5014315;28;20576;-77
2022/09/08 09:14:34;;;;;;;1.60;1.60;;;;;;;;;;5036692;28;20247;-75
2022/09/08 09:17:06;;;;;;;1.30;1.30;;;;;;;;;;5020274;28;20220;-74
2022/09/08 09:19:47;;;;;;;1.40;1.40;;;;;;;;;;5033786;28;20315;-72
2022/09/08 09:22:22;;;;;;;1.50;1.50;;;;;;;;;;5019108;28;21637;-76
2022/09/08 09:24:58;;;;;;;1.40;1.40;;;;;;;;;;5045095;28;20227;-73
2022/09/08 09:27:30;;;;;;;1.40;1.40;;;;;;;;;;5031175;28;21220;-75
2022/09/08 09:30:13;;;;;;;1.30;1.30;;;;;;;;;;5041364;28;20227;-72
2022/09/08 09:32:39;;;;;;;1.38;1.38;;;;;;;;;;5021340;28;20303;-76
2022/09/08 09:35:06;;;;;;;1.30;1.30;;;;;;;;;;5039972;28;20392;-72
2022/09/08 09:37:37;;;;;;;1.30;1.30;;;;;;;;;;5045822;28;20326;-76
2022/09/08 09:40:32;;;;;;;1.40;1.40;;;;;;;;;;5029344;28;20650;-74
2022/09/08 09:43:20;;;;;;;1.48;1.48;;;;;;;;;;5025660;28;20246;-74
2022/09/08 09:45:46;;;;;;;1.30;1.30;;;;;;;;;;5017870;28;20254;-73
2022/09/08 09:48:19;;;;;;;1.30;1.30;;;;;;;;;;5042597;28;20606;-76
2022/09/08 09:51:04;;;;;;;1.48;1.48;;;;;;;;;;5041352;28;20751;-74
2022/09/08 09:53:33;;;;;;;1.48;1.48;;;;;;;;;;5025726;28;20816;-75
2022/09/08 09:56:18;;;;;;;1.30;1.30;;;;;;;;;;5027605;28;20225;-75
2022/09/08 09:58:49;;;;;;;1.40;1.40;;;;;;;;;;5047460;28;20262;-73
2022/09/08 10:01:18;;;;;;;1.30;1.30;;;;;;;;;;5025599;28;20239;-75
2022/09/08 10:03:44;;;;;;;1.30;1.30;;;;;;;;;;5033250;28;20241;-75
2022/09/08 10:06:26;;;;;;;1.30;1.30;;;;;;;;;;5042451;28;20728;-75
2022/09/08 10:09:11;;;;;;;1.40;1.40;;;;;;;;;;5030413;28;20641;-74
2022/09/08 10:11:42;;;;;;;1.30;1.30;;;;;;;;;;5023027;28;20225;-75
2022/09/08 10:14:16;;;;;;;1.30;1.30;;;;;;;;;;5028559;28;20280;-74
2022/09/08 10:16:59;;;;;;;0.90;0.90;;;;;;;;;;5006119;28;20708;-74
2022/09/08 10:19:48;;;;;;;0.90;0.90;;;;;;;;;;5030629;28;20309;-76
2022/09/08 10:22:33;;;;;;;1.40;1.40;;;;;;;;;;4999854;28;20314;-74
2022/09/08 10:25:18;;;;;;;1.50;1.50;;;;;;;;;;5027745;28;20238;-75
2022/09/08 10:27:44;;;;;;;1.17;1.17;;;;;;;;;;5039685;28;20631;-76
2022/09/08 10:30:10;;;;;;;0.80;0.80;;;;;;;;;;5037337;28;20204;-74
2022/09/08 10:32:54;;;;;;;0.80;0.80;;;;;;;;;;5036137;28;20231;-76
2022/09/08 10:35:32;;;;;;;1.35;1.35;;;;;;;;;;5039428;28;20239;-77
2022/09/08 10:38:14;;;;;;;1.33;1.33;;;;;;;;;;5019663;28;20219;-75
2022/09/08 10:40:44;;;;;;;1.30;1.30;;;;;;;;;;5024708;28;20601;-73
2022/09/08 10:43:19;;;;;;;1.20;1.20;;;;;;;;;;5023007;28;20288;-75
2022/09/08 10:45:45;;;;;;;1.20;1.20;;;;;;;;;;5041317;28;21165;-73
2022/09/08 10:48:16;;;;;;;1.20;1.20;;;;;;;;;;5042571;28;20230;-74
2022/09/08 10:51:05;;;;;;;1.20;1.20;;;;;;;;;;5020454;28;20270;-72
2022/09/08 10:53:37;;;;;;;1.20;1.20;;;;;;;;;;5015276;28;20279;-76
2022/09/08 10:56:06;;;;;;;1.38;1.38;;;;;;;;;;5026460;28;20288;-72
2022/09/08 10:58:32;;;;;;;1.30;1.30;;;;;;;;;;5035044;28;20233;-73
2022/09/08 11:01:09;;;;;;;1.10;1.10;;;;;;;;;;5021402;28;20221;-74
2022/09/08 11:03:50;;;;;;;1.20;1.20;;;;;;;;;;5021049;28;20618;-75
2022/09/08 11:06:18;;;;;;;1.20;1.20;;;;;;;;;;5017960;28;20217;-73
2022/09/08 11:08:44;;;;;;;1.20;1.20;;;;;;;;;;5024803;28;20217;-74
2022/09/08 11:11:10;;;;;;;1.30;1.30;;;;;;;;;;5044851;28;20227;-76
2022/09/08 11:13:39;;;;;;;1.40;1.40;;;;;;;;;;5023844;28;20247;-76
2022/09/08 11:16:05;;;;;;;1.30;1.30;;;;;;;;;;5023273;28;20347;-74
2022/09/08 11:18:52;;;;;;;1.20;1.20;;;;;;;;;;5000443;28;20224;-75
2022/09/08 11:21:31;;;;;;;1.20;1.20;;;;;;;;;;5009802;28;20714;-74
2022/09/08 11:24:16;;;;;;;1.30;1.30;;;;;;;;;;5001087;28;20829;-74
2022/09/08 11:26:46;;;;;;;1.20;1.20;;;;;;;;;;5012250;28;20235;-75
2022/09/08 11:29:16;;;;;;;1.42;1.42;;;;;;;;;;5009229;28;20232;-75
2022/09/08 11:31:51;;;;;;;1.50;1.50;;;;;;;;;;5014884;28;20224;-74
2022/09/08 11:34:32;;;;;;;1.75;1.70;;;;;;;;;;5015334;28;20224;-73
2022/09/08 11:37:11;;;;;;;1.60;1.60;;;;;;;;;;5019013;28;20248;-76
2022/09/08 11:39:50;;;;;;;1.50;1.50;;;;;;;;;;5017442;28;20324;-75
2022/09/08 11:42:35;;;;;;;1.40;1.40;;;;;;;;;;5017776;28;20248;-75
2022/09/08 11:45:13;;;;;;;1.50;1.50;;;;;;;;;;5016478;28;20254;-75
2022/09/08 11:47:46;;;;;;;1.42;1.42;;;;;;;;;;5015867;28;20219;-75
2022/09/08 11:50:20;;;;;;;1.40;1.40;;;;;;;;;;5011910;28;20220;-74
2022/09/08 11:52:55;;;;;;;1.30;1.30;;;;;;;;;;5013650;28;20227;-75
2022/09/08 11:55:34;;;;;;;1.30;1.30;;;;;;;;;;5018015;28;20228;-73
2022/09/08 11:58:23;;;;;;;1.50;1.50;;;;;;;;;;5017989;28;21109;-73
2022/09/08 12:00:52;;;;;;;1.40;1.40;;;;;;;;;;5019134;28;20228;-73
2022/09/08 12:03:18;;;;;;;1.40;1.40;;;;;;;;;;5020561;28;22490;-73
2022/09/08 12:05:53;;;;;;;1.50;1.50;;;;;;;;;;5027751;28;20675;-76
2022/09/08 12:08:42;;;;;;;1.30;1.30;;;;;;;;;;5030999;28;20226;-74
2022/09/08 12:11:18;;;;;;;1.08;1.08;;;;;;;;;;4993271;28;20551;-73
2022/09/08 12:13:47;;;;;;;1.20;1.20;;;;;;;;;;5021862;28;20597;-74
2022/09/08 12:16:20;;;;;;;1.15;1.15;;;;;;;;;;5020526;28;20215;-74
2022/09/08 12:19:05;;;;;;;1.10;1.10;;;;;;;;;;5021268;28;20588;-71
2022/09/08 12:21:40;;;;;;;1.20;1.20;;;;;;;;;;5024714;28;20223;-73
2022/09/08 12:24:10;;;;;;;1.10;1.10;;;;;;;;;;5027536;28;20224;-74
2022/09/08 12:26:41;;;;;;;1.10;1.10;;;;;;;;;;5012570;28;20633;-75
2022/09/08 12:29:10;;;;;;;1.20;1.20;;;;;;;;;;5033858;28;20230;-75
2022/09/08 12:31:48;;;;;;;1.30;1.30;;;;;;;;;;5017001;28;20803;-73
2022/09/08 12:34:29;;;;;;;1.40;1.40;;;;;;;;;;5004406;28;20354;-75
2022/09/08 12:37:22;;;;;;;1.35;1.35;;;;;;;;;;5014777;28;20227;-75
2022/09/08 12:39:55;;;;;;;1.40;1.40;;;;;;;;;;5028385;28;20301;-74
2022/09/08 12:42:47;;;;;;;1.30;1.30;;;;;;;;;;5038347;28;20225;-72
2022/09/08 12:45:18;;;;;;;1.30;1.30;;;;;;;;;;5014034;28;20636;-73
2022/09/08 12:47:50;;;;;;;1.52;1.52;;;;;;;;;;5013836;28;20754;-75
2022/09/08 12:50:34;;;;;;;1.60;1.60;;;;;;;;;;5029367;28;21181;-74
2022/09/08 12:53:06;;;;;;;1.23;1.23;;;;;;;;;;5040779;28;20799;-72
2022/09/08 12:55:32;;;;;;;1.30;1.30;;;;;;;;;;5033052;28;20710;-75
2022/09/08 12:58:00;;;;;;;1.30;1.30;;;;;;;;;;5035062;28;20228;-76
2022/09/08 13:00:27;;;;;;;1.33;1.33;;;;;;;;;;5033013;28;20211;-75
2022/09/08 13:02:56;;;;;;;1.25;1.25;;;;;;;;;;4999758;28;20239;-74
2022/09/08 13:05:22;;;;;;;1.90;1.80;;;;;;;;;;5007402;28;20216;-74
2022/09/08 13:08:06;;;;;;;2.00;1.90;;;;;;;;;;5005251;28;20240;-76
2022/09/08 13:10:33;;;;;;;1.48;1.48;;;;;;;;;;5010730;28;20233;-75
2022/09/08 13:13:18;;;;;;;1.50;1.50;;;;;;;;;;5005891;28;20217;-75
2022/09/08 13:16:02;;;;;;;1.73;1.70;;;;;;;;;;4999409;28;20647;-75
2022/09/08 13:18:30;;;;;;;1.60;1.60;;;;;;;;;;4988418;28;20240;-73
2022/09/08 13:21:02;;;;;;;1.90;1.80;;;;;;;;;;4972839;28;20245;-74
2022/09/08 13:23:34;;;;;;;1.60;1.60;;;;;;;;;;4992009;28;20959;-73
2022/09/08 13:26:20;;;;;;;1.60;1.60;;;;;;;;;;5005728;28;20221;-76
2022/09/08 13:29:05;;;;;;;1.60;1.60;;;;;;;;;;5007484;28;20291;-73
2022/09/08 13:31:34;;;;;;;1.67;1.67;;;;;;;;;;4994918;28;20691;-73
2022/09/08 13:34:19;;;;;;;1.50;1.50;;;;;;;;;;4997609;28;20225;-75
2022/09/08 13:36:58;;;;;;;1.88;1.77;;;;;;;;;;4998696;28;20690;-74
2022/09/08 13:39:43;;;;;;;2.10;2.00;;;;;;;;;;4989856;28;20235;-75
2022/09/08 13:42:21;;;;;;;1.77;1.70;;;;;;;;;;5016618;28;20228;-73
2022/09/08 13:44:50;;;;;;;1.60;1.60;;;;;;;;;;4988185;28;20315;-75
2022/09/08 13:47:35;;;;;;;1.55;1.55;;;;;;;;;;4996786;28;20225;-74
2022/09/08 13:50:20;;;;;;;1.50;1.50;;;;;;;;;;5001361;28;20220;-75
2022/09/08 13:52:50;;;;;;;1.77;1.70;;;;;;;;;;5013362;28;20224;-73
2022/09/08 13:55:21;;;;;;;1.60;1.60;;;;;;;;;;4993037;28;20220;-74
2022/09/08 13:57:59;;;;;;;1.90;1.80;;;;;;;;;;5015959;28;20232;-72
2022/09/08 14:00:25;;;;;;;1.40;1.40;;;;;;;;;;5006067;28;20233;-76
2022/09/08 14:02:51;;;;;;;1.80;1.70;;;;;;;;;;5005972;28;20345;-75
2022/09/08 14:05:17;;;;;;;1.63;1.63;;;;;;;;;;4996406;28;20629;-73
2022/09/08 14:07:44;;;;;;;1.80;1.73;;;;;;;;;;5004195;28;20228;-74
2022/09/08 14:10:14;;;;;;;1.50;1.50;;;;;;;;;;4985615;28;20313;-72
2022/09/08 14:12:53;;;;;;;1.38;1.38;;;;;;;;;;5015688;28;20755;-73
2022/09/08 14:15:27;;;;;;;1.33;1.33;;;;;;;;;;4970407;28;20736;-76
2022/09/08 14:17:55;;;;;;;1.20;1.20;;;;;;;;;;4970819;28;20817;-72
2022/09/08 14:20:27;;;;;;;1.25;1.25;;;;;;;;;;4986242;28;20232;-74
2022/09/08 14:23:03;;;;;;;1.40;1.40;;;;;;;;;;5003373;28;20877;-74
2022/09/08 14:25:29;;;;;;;1.35;1.35;;;;;;;;;;4992463;28;20228;-73
2022/09/08 14:28:02;;;;;;;1.30;1.30;;;;;;;;;;4990891;28;20273;-72
2022/09/08 14:30:29;;;;;;;1.20;1.20;;;;;;;;;;4979922;28;20242;-71
2022/09/08 14:32:58;;;;;;;1.10;1.10;;;;;;;;;;4996822;28;20768;-74
2022/09/08 14:35:43;;;;;;;1.30;1.30;;;;;;;;;;4983924;28;20776;-74
2022/09/08 14:38:29;;;;;;;1.20;1.20;;;;;;;;;;5001666;28;20228;-73
2022/09/08 14:41:13;;;;;;;1.10;1.10;;;;;;;;;;4996958;28;20958;-74
2022/09/08 14:43:48;;;;;;;1.40;1.40;;;;;;;;;;4994920;28;20617;-74
2022/09/08 14:46:17;;;;;;;1.20;1.20;;;;;;;;;;4996905;28;20517;-73
2022/09/08 14:48:54;;;;;;;1.15;1.15;;;;;;;;;;4990261;28;20235;-73
2022/09/08 14:51:44;;;;;;;1.10;1.10;;;;;;;;;;4991064;28;20218;-74
2022/09/08 14:54:14;;;;;;;1.20;1.20;;;;;;;;;;4981719;28;20289;-74
2022/09/08 14:56:40;;;;;;;1.20;1.20;;;;;;;;;;4981004;28;20581;-75
2022/09/08 14:59:26;;;;;;;1.20;1.20;;;;;;;;;;4980057;28;20252;-74
2022/09/08 15:01:53;;;;;;;1.20;1.20;;;;;;;;;;4990909;28;20471;-74
2022/09/08 15:04:26;;;;;;;1.13;1.13;;;;;;;;;;5009076;28;20226;-73
2022/09/08 15:06:52;;;;;;;1.10;1.10;;;;;;;;;;5009728;28;20225;-73
2022/09/08 15:09:22;;;;;;;1.20;1.20;;;;;;;;;;4994458;28;21354;-77
2022/09/08 15:11:48;;;;;;;1.25;1.25;;;;;;;;;;4997896;28;20245;-74